Aviation Digital Data Service (ADDS)

Output produced by METARs form (0233 UTC 10 February 2016)
found at http://aviationweather.gov/adds/metars/
 
KDUJ 092339Z 1000/1024 26009KT P6SM FEW019 OVC029 
     FM100600 26010KT 3SM -SHSN OVC008